createdAt,value
2018-11-26T00:00:31.061Z,100.00
2018-11-26T00:02:59.537Z,99.53
2018-11-26T00:05:27.964Z,98.43
2018-11-26T00:07:56.379Z,94.80
2018-11-26T00:10:36.093Z,96.97
2018-11-26T00:13:04.908Z,113.23
2018-11-26T00:15:33.423Z,127.27
2018-11-26T00:18:01.815Z,129.03
2018-11-26T00:20:30.232Z,122.73
2018-11-26T00:22:58.648Z,123.70
2018-11-26T00:25:27.071Z,135.33
2018-11-26T00:27:55.478Z,132.40
2018-11-26T00:30:24.049Z,118.63
2018-11-26T00:32:52.567Z,142.10
2018-11-26T00:35:21.007Z,150.67
2018-11-26T00:37:49.476Z,136.63
2018-11-26T00:40:18.012Z,136.13
2018-11-26T00:42:46.453Z,136.70
2018-11-26T00:45:15.075Z,130.53
2018-11-26T00:47:43.905Z,136.00
2018-11-26T00:50:12.658Z,155.00
2018-11-26T00:52:41.365Z,148.70
2018-11-26T00:55:10.822Z,142.67
2018-11-26T00:57:39.284Z,140.57
2018-11-26T01:00:11.328Z,154.03
2018-11-26T01:02:39.751Z,157.83
2018-11-26T01:05:09.712Z,165.80
2018-11-26T01:07:38.114Z,172.37
2018-11-26T01:10:06.546Z,152.70
2018-11-26T01:12:34.974Z,170.37
2018-11-26T01:15:03.399Z,172.40
2018-11-26T01:17:31.812Z,161.77
2018-11-26T01:20:01.200Z,165.20
2018-11-26T01:22:29.590Z,164.90
2018-11-26T01:24:58.017Z,184.67
2018-11-26T01:27:26.612Z,168.03
2018-11-26T01:29:55.107Z,165.17
2018-11-26T01:32:23.552Z,160.13
2018-11-26T01:34:52.016Z,154.80
2018-11-26T01:37:20.421Z,139.17
2018-11-26T01:39:49.295Z,143.63
2018-11-26T01:42:17.743Z,144.03
2018-11-26T01:44:46.148Z,134.33
2018-11-26T01:47:14.630Z,113.47
2018-11-26T01:49:43.020Z,112.53
2018-11-26T01:52:11.441Z,123.07
2018-11-26T01:54:39.852Z,114.73
2018-11-26T01:57:08.252Z,93.60
2018-11-26T01:59:36.652Z,82.47
2018-11-26T02:02:05.151Z,80.13
2018-11-26T02:04:33.556Z,78.63
2018-11-26T02:07:01.962Z,80.40
2018-11-26T02:09:30.976Z,74.57
2018-11-26T02:11:59.405Z,74.20
2018-11-26T02:14:27.828Z,70.37
2018-11-26T02:16:56.965Z,67.00
2018-11-26T02:19:25.367Z,64.87
2018-11-26T02:21:54.256Z,64.13
2018-11-26T02:24:22.663Z,62.60
2018-11-26T02:26:51.038Z,60.53
2018-11-26T02:29:19.429Z,59.77
2018-11-26T02:31:47.816Z,56.77
2018-11-26T02:34:16.220Z,57.13
2018-11-26T02:36:44.625Z,53.47
2018-11-26T02:39:13.036Z,54.30
2018-11-26T02:41:41.428Z,52.03
2018-11-26T02:44:09.825Z,50.50
2018-11-26T02:46:38.223Z,49.93
2018-11-26T02:49:06.732Z,49.80
2018-11-26T02:51:35.121Z,49.47
2018-11-26T02:54:03.500Z,47.33
2018-11-26T02:56:31.882Z,45.60
2018-11-26T02:59:00.248Z,45.03
2018-11-26T03:01:28.658Z,44.13
2018-11-26T03:03:57.162Z,43.70
2018-11-26T03:06:25.569Z,41.43
2018-11-26T03:08:53.944Z,41.27
2018-11-26T03:11:22.501Z,39.83
2018-11-26T03:13:50.877Z,40.00
2018-11-26T03:16:19.347Z,37.77
2018-11-26T03:18:47.757Z,38.33
2018-11-26T03:21:16.156Z,36.63
2018-11-26T03:23:44.616Z,36.03
2018-11-26T03:26:13.085Z,36.43
2018-11-26T03:28:41.466Z,35.93
2018-11-26T03:31:09.870Z,34.37
2018-11-26T03:33:38.286Z,34.27
2018-11-26T03:36:06.672Z,33.23
2018-11-26T03:38:53.049Z,33.57
2018-11-26T03:41:21.981Z,31.93
2018-11-26T03:43:50.418Z,31.60
2018-11-26T03:46:18.805Z,31.23
2018-11-26T03:48:47.214Z,29.27
2018-11-26T03:51:15.617Z,29.93
2018-11-26T03:53:44.089Z,30.03
2018-11-26T03:56:12.637Z,29.87
2018-11-26T03:58:41.016Z,28.97
2018-11-26T04:01:09.557Z,28.57
2018-11-26T04:03:37.944Z,28.50
2018-11-26T04:06:06.331Z,28.17
2018-11-26T04:08:34.711Z,26.77
2018-11-26T04:11:03.117Z,27.30
2018-11-26T04:13:31.479Z,26.77
2018-11-26T04:15:59.916Z,26.27
2018-11-26T04:18:28.391Z,25.73
2018-11-26T04:20:56.857Z,26.27
2018-11-26T04:23:25.274Z,25.23
2018-11-26T04:25:53.672Z,25.07
2018-11-26T04:28:22.069Z,23.63
2018-11-26T04:30:50.450Z,24.27
2018-11-26T04:33:18.828Z,24.70
2018-11-26T04:35:47.208Z,24.13
2018-11-26T04:38:15.596Z,23.57
2018-11-26T04:40:44.559Z,24.07
2018-11-26T04:43:13.004Z,23.47
2018-11-26T04:45:42.103Z,23.33
2018-11-26T04:48:10.540Z,23.30
2018-11-26T04:50:39.498Z,22.77
2018-11-26T04:53:07.961Z,21.47
2018-11-26T04:55:36.376Z,21.73
2018-11-26T04:58:04.991Z,22.20
2018-11-26T05:00:33.381Z,22.30
2018-11-26T05:03:01.873Z,22.20
2018-11-26T05:05:30.394Z,20.70
2018-11-26T05:07:59.723Z,21.63
2018-11-26T05:10:28.123Z,20.33
2018-11-26T05:12:56.554Z,20.57
2018-11-26T05:15:24.940Z,20.43
2018-11-26T05:17:53.320Z,19.17
2018-11-26T05:20:21.715Z,20.53
2018-11-26T05:22:50.121Z,19.17
2018-11-26T05:25:18.655Z,20.17
2018-11-26T05:27:47.023Z,19.13
2018-11-26T05:30:15.416Z,20.30
2018-11-26T05:32:43.846Z,19.63
2018-11-26T05:35:12.997Z,20.27
2018-11-26T05:37:41.373Z,19.93
2018-11-26T05:40:11.167Z,19.10
2018-11-26T05:42:39.860Z,19.57
2018-11-26T05:45:11.005Z,20.23
2018-11-26T05:47:39.392Z,18.67
2018-11-26T05:50:10.365Z,20.07
2018-11-26T05:52:39.532Z,18.80
2018-11-26T05:55:11.472Z,19.57
2018-11-26T05:57:39.856Z,17.63
2018-11-26T06:00:14.684Z,19.07
2018-11-26T06:02:43.053Z,19.20
2018-11-26T06:05:11.454Z,18.63
2018-11-26T06:07:39.844Z,17.80
2018-11-26T06:10:09.537Z,18.10
2018-11-26T06:12:37.922Z,17.37
2018-11-26T06:15:09.632Z,18.50
2018-11-26T06:17:38.048Z,19.03
2018-11-26T06:20:07.655Z,18.10
2018-11-26T06:22:36.054Z,17.53
2018-11-26T06:25:05.648Z,17.40
2018-11-26T06:27:34.053Z,18.33
2018-11-26T06:30:02.428Z,16.90
2018-11-26T06:32:30.803Z,18.00
2018-11-26T06:34:59.203Z,17.60
2018-11-26T06:37:27.597Z,16.83
2018-11-26T06:39:55.977Z,18.07
2018-11-26T06:42:24.361Z,16.90
2018-11-26T06:44:52.912Z,17.60
2018-11-26T06:47:21.423Z,17.00
2018-11-26T06:49:49.831Z,16.53
2018-11-26T06:52:18.303Z,16.50
2018-11-26T06:54:46.695Z,16.70
2018-11-26T06:57:15.112Z,17.47
2018-11-26T06:59:43.688Z,15.97
2018-11-26T07:02:12.103Z,17.20
2018-11-26T07:04:40.545Z,17.43
2018-11-26T07:07:09.011Z,17.00
2018-11-26T07:09:37.422Z,15.90
2018-11-26T07:12:06.092Z,16.63
2018-11-26T07:14:34.501Z,16.27
2018-11-26T07:17:02.900Z,16.87
2018-11-26T07:19:31.876Z,16.83
2018-11-26T07:22:00.305Z,15.37
2018-11-26T07:24:28.756Z,16.93
2018-11-26T07:26:57.137Z,15.80
2018-11-26T07:29:25.550Z,17.90
2018-11-26T07:31:54.125Z,42.43
2018-11-26T07:34:22.625Z,43.47
2018-11-26T07:36:51.113Z,41.43
2018-11-26T07:39:19.493Z,42.13
2018-11-26T07:41:47.976Z,41.20
2018-11-26T07:44:16.396Z,40.40
2018-11-26T07:46:45.148Z,39.30
2018-11-26T07:49:14.090Z,38.83
2018-11-26T07:51:42.486Z,34.80
2018-11-26T07:54:10.894Z,41.03
2018-11-26T07:56:39.316Z,51.17
2018-11-26T07:59:07.784Z,64.13
2018-11-26T08:01:36.175Z,62.47
2018-11-26T08:04:04.773Z,60.40
2018-11-26T08:06:33.228Z,66.33
2018-11-26T08:09:01.617Z,63.93
2018-11-26T08:11:31.125Z,73.23
2018-11-26T08:13:59.541Z,75.00
2018-11-26T08:16:28.031Z,73.00
2018-11-26T08:18:56.617Z,69.47
2018-11-26T08:21:24.892Z,66.57
2018-11-26T08:23:53.600Z,65.07
2018-11-26T08:26:22.038Z,63.00
2018-11-26T08:28:50.441Z,68.43
2018-11-26T08:31:18.857Z,90.23
2018-11-26T08:33:47.289Z,113.83
2018-11-26T08:36:15.723Z,133.87
2018-11-26T08:38:46.756Z,121.83
2018-11-26T08:41:16.638Z,119.47
2018-11-26T08:43:49.563Z,116.80
2018-11-26T08:46:23.123Z,113.53
2018-11-26T08:48:56.711Z,111.90
2018-11-26T08:51:25.120Z,110.80
2018-11-26T08:53:53.529Z,109.27
2018-11-26T08:56:21.984Z,106.57
2018-11-26T08:58:50.430Z,101.13
2018-11-26T09:01:23.970Z,103.67
2018-11-26T09:03:56.489Z,99.33
2018-11-26T09:06:25.296Z,96.53
2018-11-26T09:08:53.813Z,96.63
2018-11-26T09:11:22.300Z,97.90
2018-11-26T09:13:50.704Z,105.20
2018-11-26T09:16:19.105Z,122.20
2018-11-26T09:18:47.515Z,123.23
2018-11-26T09:21:15.990Z,121.60
2018-11-26T09:23:44.390Z,123.33
2018-11-26T09:26:12.895Z,123.20
2018-11-26T09:28:41.328Z,118.73
2018-11-26T09:31:09.759Z,115.10
2018-11-26T09:33:38.276Z,113.50
2018-11-26T09:36:06.690Z,113.83
2018-11-26T09:38:35.102Z,111.20
2018-11-26T09:41:03.547Z,126.50
2018-11-26T09:43:31.939Z,116.03
2018-11-26T09:46:00.368Z,121.53
2018-11-26T09:48:28.786Z,134.47
2018-11-26T09:50:57.197Z,133.50
2018-11-26T09:53:25.628Z,130.67
2018-11-26T09:55:54.124Z,129.03
2018-11-26T09:58:22.572Z,127.27
2018-11-26T10:00:51.100Z,127.30
2018-11-26T10:03:19.553Z,123.43
2018-11-26T10:05:47.955Z,121.40
2018-11-26T10:08:16.350Z,113.13
2018-11-26T10:10:44.769Z,107.87
2018-11-26T10:13:13.268Z,103.25
2018-11-26T10:15:41.735Z,112.37
2018-11-26T10:18:10.254Z,127.80
2018-11-26T10:20:38.701Z,127.37
2018-11-26T10:23:07.207Z,135.27
2018-11-26T10:25:35.651Z,126.33
2018-11-26T10:28:04.099Z,125.50
2018-11-26T10:30:33.171Z,127.37
2018-11-26T10:33:01.677Z,119.87
2018-11-26T10:35:30.115Z,119.03
2018-11-26T10:37:58.510Z,120.27
2018-11-26T10:40:27.934Z,114.97
2018-11-26T10:42:56.396Z,115.53
2018-11-26T10:45:25.519Z,115.33
2018-11-26T10:47:54.079Z,111.03
2018-11-26T10:50:24.844Z,111.50
2018-11-26T10:52:58.468Z,106.70
2018-11-26T10:55:35.768Z,107.93
2018-11-26T10:58:05.196Z,99.13
2018-11-26T11:00:39.005Z,99.00
2018-11-26T11:03:08.116Z,94.20
2018-11-26T11:05:37.240Z,100.33
2018-11-26T11:08:06.800Z,99.23
2018-11-26T11:10:35.259Z,100.67
2018-11-26T11:13:03.752Z,104.90
2018-11-26T11:15:32.289Z,103.87
2018-11-26T11:18:00.734Z,101.83
2018-11-26T11:20:29.957Z,105.03
2018-11-26T11:23:05.718Z,100.13
2018-11-26T11:25:34.696Z,99.13
2018-11-26T11:28:03.143Z,98.93
2018-11-26T11:30:31.553Z,95.93
2018-11-26T11:35:28.455Z,90.73
2018-11-26T11:37:56.867Z,89.03
2018-11-26T11:40:28.764Z,87.37
2018-11-26T11:42:58.027Z,84.67
2018-11-26T11:45:27.288Z,82.80
2018-11-26T11:47:55.736Z,85.20
2018-11-26T11:50:24.229Z,84.87
2018-11-26T11:52:52.705Z,85.77
2018-11-26T11:55:22.987Z,82.77
2018-11-26T11:57:52.051Z,82.37
2018-11-26T12:00:43.078Z,80.73
2018-11-26T12:03:17.332Z,81.03
2018-11-26T12:05:45.737Z,78.17
2018-11-26T12:08:14.705Z,77.43
2018-11-26T12:10:43.240Z,75.57
2018-11-26T12:13:13.083Z,76.07
2018-11-26T12:15:43.922Z,65.23
2018-11-26T12:18:12.688Z,74.77
2018-11-26T12:20:41.205Z,79.13
2018-11-26T12:23:09.709Z,116.53
2018-11-26T12:25:38.181Z,125.20
2018-11-26T12:28:06.695Z,122.27
2018-11-26T12:30:37.052Z,129.00
2018-11-26T12:33:05.854Z,126.10
2018-11-26T12:35:34.858Z,125.10
2018-11-26T12:38:03.452Z,122.83
2018-11-26T12:40:31.927Z,116.43
2018-11-26T12:43:02.085Z,117.33
2018-11-26T12:45:32.027Z,116.07
2018-11-26T12:48:00.983Z,109.50
2018-11-26T12:50:29.438Z,111.03
2018-11-26T12:52:57.877Z,106.03
2018-11-26T12:55:26.649Z,124.73
2018-11-26T12:57:55.961Z,135.83
2018-11-26T13:00:26.083Z,145.93
2018-11-26T13:02:57.866Z,130.60
2018-11-26T13:05:26.322Z,128.67
2018-11-26T13:07:54.765Z,125.77
2018-11-26T13:10:23.761Z,132.77
2018-11-26T13:12:52.724Z,142.53
2018-11-26T13:15:22.350Z,133.23
2018-11-26T13:17:50.787Z,122.67
2018-11-26T13:20:23.595Z,121.03
2018-11-26T13:22:52.481Z,118.43
2018-11-26T13:25:25.167Z,119.67
2018-11-26T13:27:55.759Z,114.83
2018-11-26T13:30:26.495Z,116.33
2018-11-26T13:32:56.387Z,109.67
2018-11-26T13:35:24.821Z,104.37
2018-11-26T13:37:53.336Z,102.57
2018-11-26T13:40:22.243Z,111.20
2018-11-26T13:42:51.733Z,118.37
2018-11-26T13:45:30.491Z,112.60
2018-11-26T13:47:59.872Z,109.63
2018-11-26T13:50:33.111Z,109.27
2018-11-26T13:53:01.810Z,109.30
2018-11-26T13:55:30.278Z,105.57
2018-11-26T13:57:58.886Z,103.77
2018-11-26T14:00:27.265Z,103.47
2018-11-26T14:02:55.893Z,103.17
2018-11-26T14:05:24.322Z,101.13
2018-11-26T14:07:52.765Z,102.27
2018-11-26T14:10:22.562Z,103.70
2018-11-26T14:12:55.721Z,106.20
2018-11-26T14:15:24.262Z,121.97
2018-11-26T14:17:52.743Z,126.13
2018-11-26T14:20:21.162Z,119.13
2018-11-26T14:22:49.591Z,116.40
2018-11-26T14:25:18.774Z,117.87
2018-11-26T14:27:47.984Z,115.30
2018-11-26T14:30:20.623Z,128.30
2018-11-26T14:32:49.361Z,132.83
2018-11-26T14:35:17.967Z,126.83
2018-11-26T14:37:48.633Z,121.60
2018-11-26T14:40:20.574Z,115.30
2018-11-26T14:42:49.774Z,113.17
2018-11-26T14:45:18.272Z,115.67
2018-11-26T14:47:47.253Z,114.47
2018-11-26T14:50:16.822Z,110.10
2018-11-26T14:52:46.514Z,114.97
2018-11-26T14:55:23.062Z,117.30
2018-11-26T14:57:51.562Z,109.07
2018-11-26T15:00:20.743Z,116.20
2018-11-26T15:02:49.221Z,141.37
2018-11-26T15:05:17.732Z,156.43
2018-11-26T15:07:46.438Z,157.17
2018-11-26T15:10:17.674Z,142.67
2018-11-26T15:12:46.692Z,143.37
2018-11-26T15:15:18.374Z,139.97
2018-11-26T15:17:46.857Z,134.07
2018-11-26T15:20:20.202Z,125.73
2018-11-26T15:22:49.562Z,119.20
2018-11-26T15:25:21.204Z,113.93
2018-11-26T15:27:50.794Z,110.20
2018-11-26T15:30:20.350Z,107.10
2018-11-26T15:32:48.800Z,103.20
2018-11-26T15:35:19.478Z,100.83
2018-11-26T15:37:48.024Z,107.17
2018-11-26T15:40:17.537Z,106.47
2018-11-26T15:42:46.044Z,109.43
2018-11-26T15:45:19.690Z,103.40
2018-11-26T15:47:48.577Z,104.20
2018-11-26T15:50:16.969Z,101.23
2018-11-26T15:52:45.567Z,98.33
2018-11-26T15:55:15.169Z,112.87
2018-11-26T15:57:43.631Z,121.80
2018-11-26T16:00:14.322Z,127.10
2018-11-26T16:02:43.767Z,123.30
2018-11-26T16:05:23.083Z,115.50
2018-11-26T16:07:52.008Z,110.47
2018-11-26T16:10:20.455Z,108.37
2018-11-26T16:12:50.606Z,104.67
2018-11-26T16:15:20.525Z,97.87
2018-11-26T16:17:49.910Z,83.10
2018-11-26T16:20:20.011Z,87.80
2018-11-26T16:22:48.676Z,84.63
2018-11-26T16:25:21.409Z,92.67
2018-11-26T16:27:49.926Z,82.73
2018-11-26T16:30:18.950Z,86.80
2018-11-26T16:32:49.922Z,86.07
2018-11-26T16:35:19.850Z,84.53
2018-11-26T16:37:48.301Z,87.17
2018-11-26T16:40:17.242Z,85.10
2018-11-26T16:42:45.672Z,89.63
2018-11-26T16:45:17.353Z,98.70
2018-11-26T16:47:46.941Z,100.43
2018-11-26T16:50:16.653Z,99.50
2018-11-26T16:52:45.362Z,90.47
2018-11-26T16:55:14.666Z,90.30
2018-11-26T16:57:43.107Z,85.40
2018-11-26T17:00:20.036Z,87.27
2018-11-26T17:02:49.820Z,95.23
2018-11-26T17:05:20.022Z,88.47
2018-11-26T17:07:48.591Z,88.00
2018-11-26T17:10:16.987Z,81.63
2018-11-26T17:12:45.514Z,80.90
2018-11-26T17:15:16.129Z,80.27
2018-11-26T17:17:44.559Z,72.60
2018-11-26T17:20:13.983Z,70.57
2018-11-26T17:22:43.171Z,69.30
2018-11-26T17:25:13.637Z,64.60
2018-11-26T17:27:42.777Z,67.80
2018-11-26T17:30:26.721Z,95.43
2018-11-26T17:33:00.318Z,98.07
2018-11-26T17:35:29.270Z,96.67
2018-11-26T17:37:57.801Z,100.50
2018-11-26T17:40:27.111Z,94.73
2018-11-26T17:42:55.862Z,97.80
2018-11-26T17:45:24.932Z,94.77
2018-11-26T17:47:54.717Z,93.70
2018-11-26T17:50:30.476Z,89.63
2018-11-26T17:52:59.118Z,84.17
2018-11-26T17:55:27.582Z,97.13
2018-11-26T17:57:56.197Z,100.67
2018-11-26T18:00:29.347Z,113.43
2018-11-26T18:02:57.822Z,107.30
2018-11-26T18:05:27.642Z,104.27
2018-11-26T18:08:12.905Z,95.77
2018-11-26T18:10:41.417Z,92.00
2018-11-26T18:13:10.074Z,91.40
2018-11-26T18:15:38.544Z,82.30
2018-11-26T18:18:11.215Z,74.17
2018-11-26T18:20:39.838Z,76.00
2018-11-26T18:23:09.068Z,75.67
2018-11-26T18:25:37.457Z,69.93
2018-11-26T18:28:09.360Z,70.80
2018-11-26T18:30:39.578Z,66.63
2018-11-26T18:33:08.037Z,62.70
2018-11-26T18:35:37.122Z,75.87
2018-11-26T18:38:06.546Z,67.97
2018-11-26T18:40:35.975Z,65.17
2018-11-26T18:43:04.678Z,67.47
2018-11-26T18:45:33.084Z,68.83
2018-11-26T18:48:01.531Z,73.17
2018-11-26T18:50:30.106Z,72.10
2018-11-26T18:52:58.521Z,70.20
2018-11-26T18:55:27.039Z,68.93
2018-11-26T18:57:55.538Z,65.00
2018-11-26T19:00:28.354Z,63.53
2018-11-26T19:02:57.496Z,63.03
2018-11-26T19:05:26.140Z,62.57
2018-11-26T19:07:54.558Z,61.77
2018-11-26T19:10:25.312Z,58.83
2018-11-26T19:12:59.637Z,56.30
2018-11-26T19:15:30.754Z,52.43
2018-11-26T19:18:04.508Z,52.10
2018-11-26T19:20:32.955Z,51.07
2018-11-26T19:23:01.363Z,51.50
2018-11-26T19:25:29.762Z,56.90
2018-11-26T19:27:58.191Z,53.37
2018-11-26T19:30:26.607Z,54.03
2018-11-26T19:32:55.158Z,55.10
2018-11-26T19:35:23.578Z,51.97
2018-11-26T19:37:52.289Z,49.33
2018-11-26T19:40:20.901Z,49.73
2018-11-26T19:42:49.321Z,49.10
2018-11-26T19:45:19.326Z,48.97
2018-11-26T19:47:47.765Z,50.93
2018-11-26T19:50:18.429Z,50.83
2018-11-26T19:52:48.260Z,50.67
2018-11-26T19:55:19.050Z,49.73
2018-11-26T19:57:47.460Z,50.03
2018-11-26T20:00:22.135Z,48.87
2018-11-26T20:02:53.247Z,47.80
2018-11-26T20:06:28.199Z,49.00
2018-11-26T20:08:58.380Z,45.70
2018-11-26T20:11:32.981Z,45.53
2018-11-26T20:13:55.976Z,49.47
2018-11-26T20:16:27.690Z,51.93
2018-11-26T20:18:56.182Z,50.30
2018-11-26T20:21:24.573Z,51.83
2018-11-26T20:23:52.973Z,52.50
2018-11-26T20:26:21.397Z,50.93
2018-11-26T20:28:49.804Z,48.33
2018-11-26T20:31:18.209Z,49.13
2018-11-26T20:33:46.650Z,46.47
2018-11-26T20:36:15.315Z,44.07
2018-11-26T20:38:43.741Z,43.07
2018-11-26T20:41:13.054Z,44.43
2018-11-26T20:43:41.480Z,43.43
2018-11-26T20:46:10.573Z,43.97
2018-11-26T20:48:39.030Z,45.00
2018-11-26T20:51:07.830Z,44.03
2018-11-26T20:53:36.355Z,42.23
2018-11-26T20:56:14.753Z,41.03
2018-11-26T20:58:43.651Z,42.30
2018-11-26T21:01:12.074Z,40.97
2018-11-26T21:03:40.527Z,39.47
2018-11-26T21:06:08.921Z,39.90
2018-11-26T21:08:37.400Z,40.87
2018-11-26T21:11:05.789Z,39.50
2018-11-26T21:13:34.195Z,38.93
2018-11-26T21:16:02.602Z,36.80
2018-11-26T21:18:31.010Z,33.90
2018-11-26T21:20:59.448Z,34.80
2018-11-26T21:23:31.111Z,33.80
2018-11-26T21:26:00.764Z,35.20
2018-11-26T21:28:29.154Z,35.00
2018-11-26T21:30:57.537Z,35.77
2018-11-26T21:33:26.030Z,33.93
2018-11-26T21:35:54.449Z,33.37
2018-11-26T21:38:22.849Z,32.83
2018-11-26T21:40:51.280Z,69.30
2018-11-26T21:43:19.681Z,72.87
2018-11-26T21:45:57.470Z,81.63
2018-11-26T21:48:25.873Z,70.20
2018-11-26T21:50:54.362Z,70.90
2018-11-26T21:53:22.758Z,76.43
2018-11-26T21:55:51.140Z,68.17
2018-11-26T21:58:19.558Z,69.60
2018-11-26T22:00:49.206Z,71.33
2018-11-26T22:03:17.626Z,72.03
2018-11-26T22:05:46.105Z,74.63
2018-11-26T22:08:14.563Z,79.57
2018-11-26T22:10:43.736Z,72.43
2018-11-26T22:13:14.666Z,69.93
2018-11-26T22:15:43.141Z,67.90
2018-11-26T22:18:11.569Z,70.57
2018-11-26T22:20:39.981Z,70.60
2018-11-26T22:23:08.765Z,71.63
2018-11-26T22:25:37.502Z,67.73
2018-11-26T22:28:08.019Z,67.63
2018-11-26T22:30:37.236Z,76.27
2018-11-26T22:33:06.021Z,75.23
2018-11-26T22:35:34.447Z,98.50
2018-11-26T22:38:02.835Z,102.53
2018-11-26T22:40:31.275Z,109.57
2018-11-26T22:42:59.677Z,101.60
2018-11-26T22:45:31.220Z,94.07
2018-11-26T22:48:14.121Z,94.83
2018-11-26T22:50:43.872Z,83.13
2018-11-26T22:53:12.425Z,77.77
2018-11-26T22:55:41.005Z,78.27
2018-11-26T22:58:10.690Z,87.57
2018-11-26T23:00:47.925Z,101.77
2018-11-26T23:03:17.686Z,94.83
2018-11-26T23:05:46.189Z,95.93
2018-11-26T23:08:14.606Z,96.27
2018-11-26T23:10:43.353Z,108.07
2018-11-26T23:13:11.762Z,109.50
2018-11-26T23:15:40.169Z,101.63
2018-11-26T23:18:08.582Z,108.30
2018-11-26T23:20:36.994Z,109.67
2018-11-26T23:23:06.155Z,113.73
2018-11-26T23:25:34.673Z,105.40
2018-11-26T23:28:06.363Z,98.77
2018-11-26T23:30:34.794Z,103.43
2018-11-26T23:33:04.299Z,103.03
2018-11-26T23:35:32.714Z,102.27
2018-11-26T23:38:02.168Z,109.60
2018-11-26T23:40:30.698Z,96.23
2018-11-26T23:42:59.135Z,96.53
2018-11-26T23:45:28.436Z,89.67
2018-11-26T23:47:56.815Z,71.97
2018-11-26T23:50:25.246Z,80.03
2018-11-26T23:52:53.635Z,84.03
2018-11-26T23:55:23.232Z,82.77
2018-11-26T23:57:51.759Z,90.43
